createdAt,value
2023-05-11T00:00:53.552Z,12.49
2023-05-11T00:01:55.692Z,12.49
2023-05-11T00:02:57.988Z,12.45
2023-05-11T00:04:00.680Z,12.40
2023-05-11T00:05:02.933Z,12.44
2023-05-11T00:06:05.131Z,12.50
2023-05-11T00:07:07.272Z,12.51
2023-05-11T00:08:09.483Z,12.41
2023-05-11T00:09:12.415Z,12.39
2023-05-11T00:10:14.733Z,12.41
2023-05-11T00:11:18.530Z,12.44
2023-05-11T00:12:20.792Z,12.48
2023-05-11T00:13:22.986Z,12.56
2023-05-11T00:14:25.242Z,12.53
2023-05-11T00:15:27.410Z,12.61
2023-05-11T00:16:29.683Z,12.58
2023-05-11T00:17:31.948Z,12.61
2023-05-11T00:18:34.163Z,12.58
2023-05-11T00:19:36.309Z,12.51
2023-05-11T00:20:38.558Z,12.46
2023-05-11T00:21:40.945Z,12.48
2023-05-11T00:22:44.745Z,12.50
2023-05-11T00:23:47.165Z,12.43
2023-05-11T00:24:49.279Z,12.40
2023-05-11T00:25:51.436Z,12.46
2023-05-11T00:26:53.655Z,12.41
2023-05-11T00:27:55.813Z,12.42
2023-05-11T00:28:58.045Z,12.40
2023-05-11T00:30:00.345Z,12.34
2023-05-11T00:31:02.675Z,12.33
2023-05-11T00:32:05.045Z,12.33
2023-05-11T00:33:07.442Z,12.34
2023-05-11T00:34:09.619Z,12.32
2023-05-11T00:35:12.478Z,12.36
2023-05-11T00:36:15.511Z,12.26
2023-05-11T00:37:17.650Z,12.29
2023-05-11T00:38:20.134Z,12.14
2023-05-11T00:39:22.281Z,12.22
2023-05-11T00:40:24.944Z,12.21
2023-05-11T00:41:27.085Z,12.20
2023-05-11T00:42:29.244Z,12.19
2023-05-11T00:43:31.371Z,12.19
2023-05-11T00:44:33.800Z,12.25
2023-05-11T00:45:36.329Z,12.27
2023-05-11T00:46:39.436Z,12.28
2023-05-11T00:47:41.833Z,12.26
2023-05-11T00:48:44.313Z,12.27
2023-05-11T00:49:46.914Z,12.26
2023-05-11T00:50:49.459Z,12.25
2023-05-11T00:51:51.805Z,12.25
2023-05-11T00:52:55.824Z,12.38
2023-05-11T00:53:58.862Z,12.32
2023-05-11T00:55:01.314Z,12.32
2023-05-11T00:56:03.975Z,12.35
2023-05-11T00:57:06.229Z,12.32
2023-05-11T00:58:08.408Z,12.36
2023-05-11T00:59:11.414Z,12.35
2023-05-11T01:00:14.218Z,12.37
2023-05-11T01:01:18.634Z,12.31
2023-05-11T01:02:21.034Z,12.31
2023-05-11T01:03:23.742Z,12.33
2023-05-11T01:04:26.348Z,12.33
2023-05-11T01:05:44.240Z,12.49
2023-05-11T01:07:11.336Z,12.54
2023-05-11T01:08:20.255Z,12.48
2023-05-11T01:09:54.387Z,12.52
2023-05-11T01:11:11.323Z,12.40
2023-05-11T01:12:26.761Z,12.38
2023-05-11T01:13:37.836Z,12.32
2023-05-11T01:14:49.093Z,12.16
2023-05-11T01:15:53.812Z,12.09
2023-05-11T01:17:05.130Z,12.25
2023-05-11T01:18:19.952Z,12.23
2023-05-11T01:19:28.406Z,12.23
2023-05-11T01:20:30.862Z,12.08
2023-05-11T01:21:34.668Z,12.11
2023-05-11T01:22:45.602Z,12.18
2023-05-11T01:24:20.079Z,12.15
2023-05-11T01:25:32.258Z,12.02
2023-05-11T01:26:44.126Z,12.07
2023-05-11T01:27:55.335Z,12.06
2023-05-11T01:29:12.943Z,12.08
2023-05-11T01:30:24.058Z,11.96
2023-05-11T01:31:31.482Z,11.91
2023-05-11T01:32:36.962Z,11.84
2023-05-11T01:33:44.428Z,11.93
2023-05-11T01:34:48.861Z,11.91
2023-05-11T01:35:54.963Z,11.96
2023-05-11T01:37:09.993Z,11.88
2023-05-11T01:38:14.636Z,11.85
2023-05-11T01:39:24.862Z,11.90
2023-05-11T01:40:31.462Z,11.93
2023-05-11T01:41:36.038Z,11.91
2023-05-11T01:43:07.416Z,11.94
2023-05-11T01:44:18.323Z,11.77
2023-05-11T01:45:20.721Z,11.97
2023-05-11T01:46:26.390Z,11.96
2023-05-11T01:47:30.361Z,11.90
2023-05-11T01:48:38.089Z,11.98
2023-05-11T01:49:42.391Z,11.86
2023-05-11T01:50:46.078Z,11.82
2023-05-11T01:51:51.430Z,11.82
2023-05-11T01:52:55.033Z,11.78
2023-05-11T01:54:00.133Z,11.78
2023-05-11T01:55:04.696Z,11.74
2023-05-11T01:56:07.669Z,11.63
2023-05-11T01:57:12.939Z,11.73
2023-05-11T01:58:18.136Z,11.62
2023-05-11T01:59:20.636Z,11.60
2023-05-11T02:00:23.740Z,11.65
2023-05-11T02:01:30.623Z,11.71
2023-05-11T02:02:34.239Z,11.78
2023-05-11T02:03:38.301Z,11.71
2023-05-11T02:04:42.487Z,11.67
2023-05-11T02:05:47.399Z,11.69
2023-05-11T02:06:52.474Z,11.68
2023-05-11T02:07:58.216Z,11.69
2023-05-11T02:09:01.798Z,11.64
2023-05-11T02:10:04.555Z,11.65
2023-05-11T02:11:10.441Z,11.76
2023-05-11T02:12:16.105Z,11.72
2023-05-11T02:13:19.879Z,11.70
2023-05-11T02:14:24.629Z,11.72
2023-05-11T02:15:28.393Z,11.84
2023-05-11T02:16:32.539Z,11.77
2023-05-11T02:17:35.485Z,11.77
2023-05-11T02:18:41.004Z,11.81
2023-05-11T02:19:45.018Z,11.90
2023-05-11T02:20:48.147Z,11.88
2023-05-11T02:21:52.790Z,11.91
2023-05-11T02:22:56.655Z,11.90
2023-05-11T02:24:03.321Z,11.97
2023-05-11T02:25:07.867Z,11.89
2023-05-11T02:26:12.330Z,11.93
2023-05-11T02:27:14.473Z,11.85
2023-05-11T02:28:16.692Z,11.88
2023-05-11T02:29:19.016Z,11.84
2023-05-11T02:30:21.343Z,11.85
2023-05-11T02:31:29.821Z,12.01
2023-05-11T02:32:36.286Z,12.05
2023-05-11T02:33:44.830Z,11.98
2023-05-11T02:34:51.854Z,11.96
2023-05-11T02:35:56.463Z,11.90
2023-05-11T02:37:09.781Z,12.03
2023-05-11T02:38:14.307Z,11.88
2023-05-11T02:39:21.903Z,11.97
2023-05-11T02:40:32.053Z,12.00
2023-05-11T02:41:39.641Z,12.08
2023-05-11T02:42:44.217Z,11.98
2023-05-11T02:43:51.212Z,12.10
2023-05-11T02:44:58.624Z,12.04
2023-05-11T02:46:05.011Z,12.02
2023-05-11T02:47:12.803Z,12.03
2023-05-11T02:48:25.018Z,12.02
2023-05-11T02:49:30.981Z,11.91
2023-05-11T02:50:37.382Z,11.88
2023-05-11T02:51:44.796Z,11.88
2023-05-11T02:52:49.479Z,11.87
2023-05-11T02:53:54.542Z,11.76
2023-05-11T02:54:57.747Z,11.71
2023-05-11T02:56:00.906Z,11.73
2023-05-11T02:57:04.026Z,11.77
2023-05-11T02:58:06.407Z,11.68
2023-05-11T02:59:09.202Z,11.68
2023-05-11T03:00:12.506Z,11.72
2023-05-11T03:01:15.579Z,11.73
2023-05-11T03:02:18.096Z,11.69
2023-05-11T03:03:20.458Z,11.69
2023-05-11T03:04:22.975Z,11.76
2023-05-11T03:05:25.331Z,11.72
2023-05-11T03:06:27.610Z,11.80
2023-05-11T03:07:29.878Z,11.72
2023-05-11T03:08:32.150Z,11.79
2023-05-11T03:09:35.066Z,11.86
2023-05-11T03:10:37.874Z,11.80
2023-05-11T03:11:40.830Z,11.83
2023-05-11T03:12:44.032Z,11.81
2023-05-11T03:13:46.326Z,11.76
2023-05-11T03:14:52.305Z,11.90
2023-05-11T03:15:55.355Z,11.77
2023-05-11T03:16:58.666Z,11.83
2023-05-11T03:18:01.838Z,11.81
2023-05-11T03:19:07.179Z,11.91
2023-05-11T03:20:11.107Z,11.84
2023-05-11T03:21:18.357Z,12.02
2023-05-11T03:22:22.365Z,11.88
2023-05-11T03:23:24.810Z,11.78
2023-05-11T03:24:27.917Z,11.74
2023-05-11T03:25:30.645Z,11.70
2023-05-11T03:26:34.231Z,11.74
2023-05-11T03:27:37.571Z,11.69
2023-05-11T03:28:43.923Z,11.76
2023-05-11T03:29:48.887Z,11.81
2023-05-11T03:30:53.349Z,11.77
2023-05-11T03:31:55.902Z,11.71
2023-05-11T03:32:59.133Z,11.74
2023-05-11T03:34:01.534Z,11.68
2023-05-11T03:35:07.143Z,11.77
2023-05-11T03:36:10.964Z,11.83
2023-05-11T03:37:14.816Z,11.71
2023-05-11T03:38:19.542Z,11.70
2023-05-11T03:39:23.284Z,11.79
2023-05-11T03:40:27.895Z,11.70
2023-05-11T03:41:32.374Z,11.81
2023-05-11T03:42:37.945Z,11.86
2023-05-11T03:43:40.961Z,11.83
2023-05-11T03:44:47.353Z,11.84
2023-05-11T03:45:53.187Z,11.82
2023-05-11T03:46:58.392Z,11.69
2023-05-11T03:48:01.875Z,11.61
2023-05-11T03:49:06.225Z,11.60
2023-05-11T03:50:09.558Z,11.60
2023-05-11T03:51:12.129Z,11.65
2023-05-11T03:52:15.009Z,11.72
2023-05-11T03:53:17.576Z,11.63
2023-05-11T03:54:19.805Z,11.60
2023-05-11T03:55:22.989Z,11.55
2023-05-11T03:56:25.139Z,11.52
2023-05-11T03:57:27.532Z,11.49
2023-05-11T03:58:31.344Z,11.57
2023-05-11T03:59:33.597Z,11.52
2023-05-11T04:00:42.240Z,11.65
2023-05-11T04:01:44.820Z,11.48
2023-05-11T04:02:47.252Z,11.48
2023-05-11T04:03:51.821Z,11.51
2023-05-11T04:04:54.354Z,11.42
2023-05-11T04:05:56.660Z,11.40
2023-05-11T04:06:59.626Z,11.45
2023-05-11T04:08:02.891Z,11.42
2023-05-11T04:09:05.115Z,11.28
2023-05-11T04:10:07.946Z,11.31
2023-05-11T04:11:10.661Z,11.26
2023-05-11T04:12:12.887Z,11.30
2023-05-11T04:13:15.025Z,11.32
2023-05-11T04:14:17.691Z,11.25
2023-05-11T04:15:19.879Z,11.25
2023-05-11T04:16:23.397Z,11.17
2023-05-11T04:17:25.659Z,11.14
2023-05-11T04:18:27.900Z,11.17
2023-05-11T04:19:30.133Z,11.22
2023-05-11T04:20:32.443Z,11.20
2023-05-11T04:21:35.735Z,11.21
2023-05-11T04:22:38.632Z,11.34
2023-05-11T04:23:40.829Z,11.39
2023-05-11T04:24:43.053Z,11.39
2023-05-11T04:25:45.263Z,11.39
2023-05-11T04:26:47.419Z,11.39
2023-05-11T04:27:49.602Z,11.46
2023-05-11T04:28:51.726Z,11.43
2023-05-11T04:29:54.006Z,11.39
2023-05-11T04:30:57.501Z,11.46
2023-05-11T04:31:59.772Z,11.41
2023-05-11T04:33:03.670Z,11.40
2023-05-11T04:34:07.495Z,11.44
2023-05-11T04:35:11.355Z,11.33
2023-05-11T04:36:14.766Z,11.47
2023-05-11T04:37:16.919Z,11.46
2023-05-11T04:38:20.096Z,11.46
2023-05-11T04:39:22.347Z,11.48
2023-05-11T04:40:24.688Z,11.49
2023-05-11T04:41:28.424Z,11.50
2023-05-11T04:42:33.373Z,11.52
2023-05-11T04:43:37.830Z,11.54
2023-05-11T04:44:40.809Z,11.54
2023-05-11T04:45:48.410Z,11.66
2023-05-11T04:46:55.941Z,11.70
2023-05-11T04:47:58.218Z,11.55
2023-05-11T04:49:01.249Z,11.48
2023-05-11T04:50:06.043Z,11.42
2023-05-11T04:51:10.318Z,11.42
2023-05-11T04:52:18.048Z,11.39
2023-05-11T04:53:23.693Z,11.32
2023-05-11T04:54:25.907Z,11.20
2023-05-11T04:55:28.080Z,11.27
2023-05-11T04:56:31.264Z,11.22
2023-05-11T04:57:34.799Z,11.24
2023-05-11T04:58:37.912Z,11.28
2023-05-11T04:59:40.128Z,11.35
2023-05-11T05:00:42.403Z,11.39
2023-05-11T05:01:44.691Z,11.39
2023-05-11T05:02:46.929Z,11.45
2023-05-11T05:03:49.921Z,11.45
2023-05-11T05:04:53.106Z,11.49
2023-05-11T05:05:56.071Z,11.52
2023-05-11T05:06:58.675Z,11.59
2023-05-11T05:08:01.188Z,11.63
2023-05-11T05:09:03.427Z,11.67
2023-05-11T05:10:08.844Z,11.56
2023-05-11T05:11:11.183Z,11.50
2023-05-11T05:12:13.317Z,11.52
2023-05-11T05:13:18.282Z,11.60
2023-05-11T05:14:20.504Z,11.64
2023-05-11T05:15:22.720Z,11.70
2023-05-11T05:16:24.923Z,11.75
2023-05-11T05:17:27.185Z,11.90
2023-05-11T05:18:29.411Z,11.95
2023-05-11T05:19:31.781Z,11.94
2023-05-11T05:20:35.134Z,11.97
2023-05-11T05:21:37.730Z,12.09
2023-05-11T05:22:39.893Z,12.09
2023-05-11T05:23:42.016Z,12.09
2023-05-11T05:24:44.135Z,12.08
2023-05-11T05:25:46.573Z,12.11
2023-05-11T05:26:48.770Z,12.12
2023-05-11T05:27:51.602Z,12.16
2023-05-11T05:28:54.981Z,12.12
2023-05-11T05:29:57.202Z,12.08
2023-05-11T05:31:01.078Z,11.92
2023-05-11T05:32:03.720Z,11.96
2023-05-11T05:33:06.355Z,11.96
2023-05-11T05:34:10.809Z,12.00
2023-05-11T05:35:13.332Z,12.06
2023-05-11T05:36:17.676Z,12.05
2023-05-11T05:37:19.835Z,11.94
2023-05-11T05:38:22.437Z,12.02
2023-05-11T05:39:24.704Z,11.94
2023-05-11T05:40:27.208Z,11.84
2023-05-11T05:41:31.362Z,11.72
2023-05-11T05:42:33.640Z,11.78
2023-05-11T05:43:36.157Z,11.82
2023-05-11T05:44:38.711Z,11.73
2023-05-11T05:45:41.114Z,11.81
2023-05-11T05:46:43.948Z,11.85
2023-05-11T05:47:47.198Z,11.82
2023-05-11T05:48:49.532Z,11.81
2023-05-11T05:49:51.691Z,11.76
2023-05-11T05:50:53.990Z,11.72
2023-05-11T05:51:56.334Z,11.69
2023-05-11T05:52:58.811Z,11.59
2023-05-11T05:54:03.356Z,11.55
2023-05-11T05:55:06.497Z,11.68
2023-05-11T05:56:08.735Z,11.68
2023-05-11T05:57:11.894Z,11.81
2023-05-11T05:58:14.881Z,11.84
2023-05-11T05:59:18.969Z,11.81
2023-05-11T06:00:21.488Z,11.89
2023-05-11T06:01:31.691Z,11.82
2023-05-11T06:02:34.000Z,11.91
2023-05-11T06:03:36.440Z,11.97
2023-05-11T06:04:39.365Z,11.94
2023-05-11T06:05:41.530Z,11.98
2023-05-11T06:06:43.948Z,12.06
2023-05-11T06:07:54.308Z,12.05
2023-05-11T06:09:04.340Z,12.09
2023-05-11T06:10:06.745Z,12.10
2023-05-11T06:11:08.957Z,12.12
2023-05-11T06:12:11.520Z,12.11
2023-05-11T06:13:18.184Z,12.18
2023-05-11T06:14:22.373Z,12.16
2023-05-11T06:15:25.270Z,12.17
2023-05-11T06:16:33.547Z,12.23
2023-05-11T06:17:35.824Z,12.22
2023-05-11T06:18:38.147Z,12.34
2023-05-11T06:19:42.628Z,12.38
2023-05-11T06:20:45.368Z,12.40
2023-05-11T06:21:48.659Z,12.44
2023-05-11T06:22:51.164Z,12.32
2023-05-11T06:23:53.422Z,12.34
2023-05-11T06:24:55.640Z,12.48
2023-05-11T06:25:57.826Z,12.51
2023-05-11T06:27:01.692Z,12.63
2023-05-11T06:28:05.039Z,12.75
2023-05-11T06:29:08.129Z,12.74
2023-05-11T06:30:11.415Z,12.74
2023-05-11T06:31:14.015Z,12.78
2023-05-11T06:32:17.997Z,12.74
2023-05-11T06:33:20.546Z,12.78
2023-05-11T06:34:22.767Z,12.73
2023-05-11T06:35:25.496Z,12.76
2023-05-11T06:36:28.595Z,12.76
2023-05-11T06:37:31.237Z,12.72
2023-05-11T06:38:33.634Z,12.74
2023-05-11T06:39:37.713Z,12.86
2023-05-11T06:40:43.017Z,12.85
2023-05-11T06:41:45.353Z,12.88
2023-05-11T06:42:47.528Z,12.88
2023-05-11T06:43:49.666Z,12.96
2023-05-11T06:45:00.822Z,13.07
2023-05-11T06:46:04.531Z,12.95
2023-05-11T06:47:08.638Z,12.89
2023-05-11T06:48:10.811Z,12.82
2023-05-11T06:49:13.162Z,12.87
2023-05-11T06:50:15.440Z,12.88
2023-05-11T06:51:17.791Z,13.00
2023-05-11T06:52:19.958Z,13.02
2023-05-11T06:53:22.352Z,13.19
2023-05-11T06:54:24.559Z,13.16
2023-05-11T06:55:27.842Z,13.20
2023-05-11T06:56:31.873Z,13.22
2023-05-11T06:57:34.025Z,13.28
2023-05-11T06:58:36.259Z,13.42
2023-05-11T06:59:38.437Z,13.37
2023-05-11T07:00:40.850Z,13.41
2023-05-11T07:01:43.496Z,13.48
2023-05-11T07:02:45.722Z,13.41
2023-05-11T07:03:49.750Z,13.43
2023-05-11T07:04:52.779Z,13.34
2023-05-11T07:05:55.149Z,13.28
2023-05-11T07:06:57.319Z,13.09
2023-05-11T07:07:59.458Z,13.15
2023-05-11T07:09:03.399Z,13.03
2023-05-11T07:10:06.729Z,13.08
2023-05-11T07:11:08.953Z,13.07
2023-05-11T07:12:11.154Z,13.14
2023-05-11T07:13:14.229Z,12.97
2023-05-11T07:14:16.382Z,13.10
2023-05-11T07:15:18.575Z,13.19
2023-05-11T07:16:20.860Z,13.25
2023-05-11T07:17:23.414Z,13.33
2023-05-11T07:18:25.790Z,13.22
2023-05-11T07:19:27.971Z,13.27
2023-05-11T07:20:30.300Z,13.43
2023-05-11T07:21:35.372Z,13.56
2023-05-11T07:22:37.549Z,13.23
2023-05-11T07:23:39.750Z,13.43
2023-05-11T07:24:42.256Z,13.32
2023-05-11T07:25:44.379Z,13.44
2023-05-11T07:26:46.552Z,13.50
2023-05-11T07:27:48.681Z,13.57
2023-05-11T07:28:50.916Z,13.45
2023-05-11T07:29:53.102Z,13.64
2023-05-11T07:30:55.378Z,13.55
2023-05-11T07:31:57.741Z,13.56
2023-05-11T07:33:00.001Z,13.58
2023-05-11T07:34:02.612Z,13.58
2023-05-11T07:35:05.557Z,13.71
2023-05-11T07:36:07.984Z,13.71
2023-05-11T07:37:10.247Z,13.73
2023-05-11T07:38:13.841Z,13.78
2023-05-11T07:39:17.066Z,13.93
2023-05-11T07:40:19.624Z,13.85
2023-05-11T07:41:26.088Z,13.85
2023-05-11T07:42:28.243Z,13.91
2023-05-11T07:43:30.434Z,13.99
2023-05-11T07:44:32.618Z,13.98
2023-05-11T07:47:13.838Z,14.16
2023-05-11T07:48:16.464Z,14.19
2023-05-11T07:49:22.985Z,14.21
2023-05-11T07:50:33.473Z,14.32
2023-05-11T07:51:35.750Z,14.29
2023-05-11T07:52:38.321Z,14.26
2023-05-11T07:53:40.497Z,14.36
2023-05-11T07:54:42.800Z,14.20
2023-05-11T07:55:44.983Z,14.30
2023-05-11T07:56:47.144Z,14.31
2023-05-11T07:57:49.382Z,14.42
2023-05-11T07:58:51.541Z,14.45
2023-05-11T07:59:53.726Z,14.38
2023-05-11T08:00:56.714Z,14.44
2023-05-11T08:01:59.440Z,14.46
2023-05-11T08:03:02.045Z,14.42
2023-05-11T08:04:04.403Z,14.42
2023-05-11T08:05:07.298Z,14.41
2023-05-11T08:06:09.663Z,14.52
2023-05-11T08:07:11.886Z,14.54
2023-05-11T08:08:14.055Z,14.86
2023-05-11T08:09:16.487Z,14.93
2023-05-11T08:10:18.696Z,14.67
2023-05-11T08:11:20.911Z,14.81
2023-05-11T08:12:23.096Z,14.71
2023-05-11T08:13:26.015Z,14.96
2023-05-11T08:14:28.526Z,15.07
2023-05-11T08:15:30.750Z,15.14
2023-05-11T08:16:33.343Z,15.03
2023-05-11T08:17:36.462Z,14.91
2023-05-11T08:18:38.794Z,14.96
2023-05-11T08:19:40.981Z,14.91
2023-05-11T08:20:43.173Z,15.06
2023-05-11T08:21:46.465Z,15.16
2023-05-11T08:22:48.848Z,15.23
2023-05-11T08:23:51.196Z,15.27
2023-05-11T08:24:53.414Z,15.43
2023-05-11T08:25:56.297Z,15.41
2023-05-11T08:26:58.982Z,15.47
2023-05-11T08:28:02.430Z,15.60
2023-05-11T08:29:04.908Z,15.65
2023-05-11T08:30:11.343Z,15.61
2023-05-11T08:31:14.397Z,15.62
2023-05-11T08:32:16.702Z,15.45
2023-05-11T08:33:36.047Z,15.61
2023-05-11T08:34:40.284Z,15.85
2023-05-11T08:35:43.051Z,15.88
2023-05-11T08:36:45.969Z,15.88
2023-05-11T08:37:48.380Z,15.86
2023-05-11T08:38:51.096Z,15.85
2023-05-11T08:39:54.654Z,15.97
2023-05-11T08:40:56.848Z,15.98
2023-05-11T08:42:02.682Z,15.89
2023-05-11T08:43:07.253Z,15.85
2023-05-11T08:44:10.699Z,15.88
2023-05-11T08:45:13.394Z,15.72
2023-05-11T08:46:22.381Z,15.86
2023-05-11T08:47:25.121Z,15.87
2023-05-11T08:48:28.024Z,15.91
2023-05-11T08:49:30.424Z,16.03
2023-05-11T08:50:33.373Z,16.09
2023-05-11T08:51:35.725Z,16.23
2023-05-11T08:52:38.245Z,16.30
2023-05-11T08:53:40.584Z,16.20
2023-05-11T08:54:43.098Z,16.16
2023-05-11T08:55:47.817Z,16.43
2023-05-11T08:56:51.713Z,16.33
2023-05-11T08:57:56.425Z,16.50
2023-05-11T08:58:58.968Z,16.50
2023-05-11T09:00:02.952Z,16.56
2023-05-11T09:01:06.744Z,16.69
2023-05-11T09:02:14.411Z,16.83
2023-05-11T09:03:19.898Z,16.87
2023-05-11T09:04:23.963Z,16.88
2023-05-11T09:05:28.022Z,16.93
2023-05-11T09:06:31.254Z,17.07
2023-05-11T09:07:37.332Z,17.21
2023-05-11T09:08:40.064Z,16.94
2023-05-11T09:09:42.368Z,16.93
2023-05-11T09:10:44.914Z,17.07
2023-05-11T09:11:47.580Z,17.20
2023-05-11T09:12:49.741Z,17.28
2023-05-11T09:13:52.431Z,17.24
2023-05-11T09:14:54.832Z,17.47
2023-05-11T09:15:57.487Z,17.38
2023-05-11T09:16:59.691Z,17.49
2023-05-11T09:18:02.810Z,17.66
2023-05-11T09:19:05.688Z,17.44
2023-05-11T09:20:09.464Z,17.65
2023-05-11T09:21:12.859Z,17.85
2023-05-11T09:22:15.094Z,18.00
2023-05-11T09:23:17.805Z,18.46
2023-05-11T09:24:20.979Z,18.31
2023-05-11T09:25:24.517Z,18.48
2023-05-11T09:26:29.364Z,18.51
2023-05-11T09:27:32.374Z,18.87
2023-05-11T09:28:36.094Z,19.05
2023-05-11T09:29:38.567Z,19.26
2023-05-11T09:30:40.767Z,19.86
2023-05-11T09:31:47.342Z,20.20
2023-05-11T09:32:54.487Z,20.43
2023-05-11T09:34:29.257Z,20.58
2023-05-11T09:35:34.006Z,20.23
2023-05-11T09:36:36.383Z,20.35
2023-05-11T09:37:39.180Z,20.01
2023-05-11T09:38:41.505Z,20.27
2023-05-11T09:39:59.208Z,20.35
2023-05-11T09:41:06.869Z,20.09
2023-05-11T09:42:17.404Z,20.56
2023-05-11T09:43:24.954Z,20.49
2023-05-11T09:44:31.679Z,20.23
2023-05-11T09:45:41.910Z,20.46
2023-05-11T09:46:45.714Z,20.86
2023-05-11T09:47:49.144Z,21.08
2023-05-11T09:49:00.057Z,21.59
2023-05-11T09:50:15.433Z,22.08
2023-05-11T09:51:33.023Z,21.63
2023-05-11T09:52:43.576Z,22.11
2023-05-11T09:53:46.259Z,21.97
2023-05-11T09:54:51.762Z,22.10
2023-05-11T09:55:55.451Z,22.03
2023-05-11T09:57:00.200Z,21.88
2023-05-11T09:58:04.411Z,21.98
2023-05-11T09:59:06.576Z,21.68
2023-05-11T10:00:14.988Z,21.96
2023-05-11T10:01:19.124Z,21.76
2023-05-11T10:02:25.234Z,21.41
2023-05-11T10:03:27.682Z,21.46
2023-05-11T10:04:30.187Z,21.43
2023-05-11T10:05:36.712Z,21.50
2023-05-11T10:06:49.522Z,21.60
2023-05-11T10:08:00.189Z,21.46
2023-05-11T10:09:11.547Z,21.26
2023-05-11T10:10:13.980Z,21.11
2023-05-11T10:11:16.312Z,20.93
2023-05-11T10:12:22.140Z,20.85
2023-05-11T10:13:24.865Z,20.74
2023-05-11T10:14:28.316Z,20.60
2023-05-11T10:15:33.309Z,20.72
2023-05-11T10:16:35.879Z,20.65
2023-05-11T10:17:38.290Z,20.88
2023-05-11T10:18:41.210Z,21.16
2023-05-11T10:19:43.548Z,21.41
2023-05-11T10:20:46.331Z,21.84
2023-05-11T10:21:49.464Z,21.61
2023-05-11T10:22:53.608Z,21.54
2023-05-11T10:23:57.482Z,21.77
2023-05-11T10:25:00.223Z,21.96
2023-05-11T10:26:04.971Z,22.03
2023-05-11T10:27:07.488Z,22.09
2023-05-11T10:28:10.671Z,21.77
2023-05-11T10:29:13.864Z,21.85
2023-05-11T10:30:16.280Z,21.72
2023-05-11T10:31:24.128Z,21.33
2023-05-11T10:32:27.698Z,21.56
2023-05-11T10:33:30.412Z,21.11
2023-05-11T10:34:33.868Z,21.42
2023-05-11T10:35:38.476Z,21.39
2023-05-11T10:36:40.689Z,21.35
2023-05-11T10:37:43.372Z,21.59
2023-05-11T10:38:45.632Z,21.26
2023-05-11T10:39:50.472Z,21.09
2023-05-11T10:41:02.310Z,21.25
2023-05-11T10:42:25.761Z,21.15
2023-05-11T10:43:47.529Z,21.26
2023-05-11T10:44:58.541Z,21.09
2023-05-11T10:46:10.582Z,20.56
2023-05-11T10:47:42.338Z,20.63
2023-05-11T10:49:11.890Z,20.35
2023-05-11T10:50:32.897Z,20.37
2023-05-11T10:52:06.457Z,20.49
2023-05-11T10:53:32.222Z,20.30
2023-05-11T10:55:16.824Z,20.44
2023-05-11T10:56:35.247Z,20.32
2023-05-11T10:58:00.042Z,20.38
2023-05-11T10:59:41.737Z,20.44
2023-05-11T11:01:02.109Z,20.48
2023-05-11T11:02:04.715Z,19.83
2023-05-11T11:03:14.441Z,19.70
2023-05-11T11:04:17.352Z,19.47
2023-05-11T11:05:36.369Z,19.62
2023-05-11T11:06:43.841Z,19.80
2023-05-11T11:08:00.290Z,19.86
2023-05-11T11:09:13.673Z,20.02
2023-05-11T11:10:30.710Z,20.05
2023-05-11T11:11:36.354Z,19.99
2023-05-11T11:12:38.713Z,20.09
2023-05-11T11:13:57.400Z,20.29
2023-05-11T11:15:07.013Z,20.42
2023-05-11T11:16:09.527Z,20.43
2023-05-11T11:17:24.310Z,20.61
2023-05-11T11:18:33.547Z,20.83
2023-05-11T11:19:36.559Z,20.72
2023-05-11T11:20:49.852Z,21.08
2023-05-11T11:21:52.052Z,21.18
2023-05-11T11:22:54.347Z,21.07
2023-05-11T11:23:56.680Z,21.29
2023-05-11T11:24:58.906Z,21.22
2023-05-11T11:26:02.946Z,21.44
2023-05-11T11:27:06.402Z,21.77
2023-05-11T11:28:08.922Z,21.58
2023-05-11T11:29:11.635Z,21.59
2023-05-11T11:30:17.677Z,21.63
2023-05-11T11:31:28.099Z,21.62
2023-05-11T11:32:30.458Z,21.50
2023-05-11T11:33:34.078Z,21.34
2023-05-11T11:34:36.568Z,21.12
2023-05-11T11:35:42.166Z,21.24
2023-05-11T11:37:05.809Z,21.15
2023-05-11T11:38:09.068Z,21.14
2023-05-11T11:39:11.488Z,21.02
2023-05-11T11:40:15.161Z,20.64
2023-05-11T11:41:33.134Z,20.91
2023-05-11T11:42:37.968Z,20.70
2023-05-11T11:43:45.641Z,20.66
2023-05-11T11:44:48.534Z,20.19
2023-05-11T11:45:56.162Z,20.31
2023-05-11T11:47:19.793Z,20.65
2023-05-11T11:48:36.319Z,20.88
2023-05-11T11:49:40.161Z,20.68
2023-05-11T11:50:44.448Z,21.05
2023-05-11T11:51:46.648Z,20.92
2023-05-11T11:52:48.790Z,21.05
2023-05-11T11:53:51.178Z,21.31
2023-05-11T11:54:54.356Z,21.32
2023-05-11T11:55:56.706Z,21.58
2023-05-11T11:57:00.210Z,21.89
2023-05-11T11:58:02.393Z,21.96
2023-05-11T11:59:10.025Z,22.22
2023-05-11T12:00:14.170Z,22.28
2023-05-11T12:01:18.809Z,22.51
2023-05-11T12:02:22.611Z,22.18
2023-05-11T12:03:25.755Z,22.33
2023-05-11T12:04:31.464Z,22.52
2023-05-11T12:05:37.329Z,22.26
2023-05-11T12:06:41.194Z,22.03
2023-05-11T12:07:46.042Z,21.85
2023-05-11T12:08:48.532Z,21.74
2023-05-11T12:09:52.875Z,20.91
2023-05-11T12:10:55.403Z,20.78
2023-05-11T12:11:58.653Z,20.82
2023-05-11T12:13:01.357Z,20.30
2023-05-11T12:14:03.560Z,20.17
2023-05-11T12:15:07.628Z,20.23
2023-05-11T12:16:15.004Z,20.19
2023-05-11T12:17:28.201Z,20.02
2023-05-11T12:18:30.625Z,19.99
2023-05-11T12:19:32.854Z,19.94
2023-05-11T12:20:35.309Z,19.99
2023-05-11T12:21:37.458Z,19.95
2023-05-11T12:22:39.798Z,19.82
2023-05-11T12:23:55.175Z,19.93
2023-05-11T12:25:00.142Z,19.61
2023-05-11T12:26:06.812Z,19.93
2023-05-11T12:27:09.449Z,19.84
2023-05-11T12:28:12.772Z,19.84
2023-05-11T12:29:15.899Z,19.76
2023-05-11T12:30:23.185Z,19.68
2023-05-11T12:31:27.208Z,19.40
2023-05-11T12:32:31.498Z,19.69
2023-05-11T12:33:33.763Z,19.29
2023-05-11T12:34:35.983Z,19.16
2023-05-11T12:35:40.342Z,19.20
2023-05-11T12:36:45.294Z,19.36
2023-05-11T12:37:48.139Z,19.37
2023-05-11T12:38:50.980Z,19.45
2023-05-11T12:39:56.828Z,19.47
2023-05-11T12:40:59.809Z,19.38
2023-05-11T12:42:01.986Z,19.22
2023-05-11T12:43:04.112Z,19.38
2023-05-11T12:44:06.318Z,19.24
2023-05-11T12:45:09.275Z,19.20
2023-05-11T12:46:11.663Z,19.13
2023-05-11T12:47:14.832Z,19.19
2023-05-11T12:48:17.064Z,19.02
2023-05-11T12:50:25.961Z,18.90
2023-05-11T12:51:48.517Z,19.06
2023-05-11T12:52:50.935Z,19.00
2023-05-11T12:53:53.268Z,18.94
2023-05-11T12:55:00.253Z,18.94
2023-05-11T12:56:04.632Z,19.07
2023-05-11T12:57:22.315Z,19.14
2023-05-11T12:58:24.564Z,19.03
2023-05-11T12:59:37.692Z,19.02
2023-05-11T13:00:54.315Z,19.27
2023-05-11T13:02:18.038Z,19.19
2023-05-11T13:03:30.553Z,19.38
2023-05-11T13:04:33.027Z,19.19
2023-05-11T13:05:35.945Z,19.32
2023-05-11T13:06:38.289Z,19.26
2023-05-11T13:07:40.587Z,19.44
2023-05-11T13:08:46.980Z,19.76
2023-05-11T13:10:00.805Z,19.86
2023-05-11T13:11:25.668Z,20.18
2023-05-11T13:12:32.053Z,19.96
2023-05-11T13:13:35.682Z,20.11
2023-05-11T13:14:38.998Z,20.06
2023-05-11T13:15:51.668Z,20.43
2023-05-11T13:16:54.183Z,19.99
2023-05-11T13:18:03.468Z,20.06
2023-05-11T13:19:10.112Z,20.04
2023-05-11T13:20:29.728Z,20.16
2023-05-11T13:21:33.566Z,20.19
2023-05-11T13:22:36.150Z,20.00
2023-05-11T13:23:38.598Z,20.19
2023-05-11T13:24:41.291Z,20.25
2023-05-11T13:25:46.544Z,20.57
2023-05-11T13:26:48.898Z,20.29
2023-05-11T13:27:51.636Z,20.51
2023-05-11T13:29:08.724Z,20.39
2023-05-11T13:30:13.417Z,20.49
2023-05-11T13:31:16.064Z,20.52
2023-05-11T13:32:18.533Z,20.54
2023-05-11T13:33:20.983Z,20.72
2023-05-11T13:34:25.609Z,20.84
2023-05-11T13:35:27.880Z,20.64
2023-05-11T13:36:31.130Z,20.79
2023-05-11T13:37:34.287Z,20.67
2023-05-11T13:38:36.526Z,20.54
2023-05-11T13:39:38.842Z,20.48
2023-05-11T13:40:41.399Z,20.60
2023-05-11T13:41:43.924Z,20.38
2023-05-11T13:42:48.875Z,20.13
2023-05-11T13:43:51.328Z,20.24
2023-05-11T13:44:53.558Z,20.31
2023-05-11T13:45:56.046Z,19.93
2023-05-11T13:46:58.568Z,20.10
2023-05-11T13:48:01.055Z,19.96
2023-05-11T13:49:03.801Z,20.11
2023-05-11T13:50:07.151Z,20.20
2023-05-11T13:51:09.339Z,20.06
2023-05-11T13:52:11.574Z,19.95
2023-05-11T13:53:13.984Z,20.11
2023-05-11T13:54:16.222Z,20.07
2023-05-11T13:55:19.121Z,20.17
2023-05-11T13:56:22.153Z,19.95
2023-05-11T13:57:24.486Z,19.88
2023-05-11T13:58:26.758Z,19.77